NCAR-RAP Real-Time Weather Data

Output produced by METARs form (20 February 2019  17:56 UTC)
found at http://weather.rap.ucar.edu/surface/
 
RJFR 201700Z 29005KT 9999 FEW045 SCT150 07/01 Q1024
RJFR 201600Z 36008KT 9999 FEW040 07/01 Q1024
RJFR 201500Z 35008KT 9999 FEW040 SCT/// 07/01 Q1024
RJFR 201400Z 29005KT 9999 FEW040 BKN/// 08/01 Q1024
RJFR 201300Z 36008KT 9999 FEW025 SCT035 BKN045 08/01 Q1023
RJFR 201200Z 35008KT 9999 FEW030 SCT040 08/01 Q1023
RJFR 201100Z 34008KT 9999 FEW030 BKN040 08/00 Q1023
RJFR 201000Z 32011KT 9999 FEW025 BKN040 09/01 Q1022
RJFR 200900Z 31010KT 9999 FEW025 BKN035 10/01 Q1022
RJFR 200800Z 30016KT 9999 FEW025 BKN035 10/02 Q1021
RJFR 200700Z 29015KT 9999 FEW020 BKN030 BKN040 10/03 Q1021
RJFR 200600Z 30014KT 9999 FEW015 SCT025 BKN035 10/03 Q1021
RJFR 200500Z 31013KT 9999 FEW015 BKN025 BKN030 10/04 Q1020
RJFR 200400Z 30012KT 9999 FEW015 BKN025 BKN035 10/05 Q1021
RJFR 200300Z 27016KT 9999 FEW020 BKN030 BKN040 11/03 Q1021
RJFR 200200Z 28011KT 9999 FEW020 BKN030 11/03 Q1021
RJFR 200100Z 25014KT 9999 FEW020 BKN030 BKN040 11/03 Q1020
RJFR 200000Z 26014KT 9999 FEW020 11/04 Q1020
RJFR 192300Z 26014KT 9999 FEW020 SCT030 BKN040 11/04 Q1020
RJFR 192200Z 26015KT 9999 FEW020 SCT030 BKN040 11/05 Q1019
RJFR 192100Z 27011KT 9999 FEW020 SCT025 BKN035 11/04 Q1018
RJFR 192000Z 28015KT 9999 FEW015 SCT020 BKN030 12/05 Q1018
RJFR 191900Z 29017KT 9999 FEW010 SCT020 BKN030 12/06 Q1017
RJFR 191800Z 29016KT 9999 FEW020 SCT025 BKN035 12/07 Q1017
RJFR 191700Z 28017KT 9999 FEW025 SCT035 12/08 Q1018
RJFR 191600Z 27012KT 9999 FEW015 SCT025 BKN040 12/08 Q1017
RJFR 191500Z 29011KT 9999 -SHRA FEW010 SCT015 BKN025 12/10 Q1018
RJFR 191400Z 29011KT 9999 FEW025 SCT035 BKN045 14/09 Q1017
RJFR 191300Z 27006KT 9999 FEW025 SCT035 BKN045 14/09 Q1017
RJFR 191200Z 27013KT 9999 FEW015 SCT025 BKN040 14/10 Q1016
RJFR 191100Z 30009KT 9999 FEW015 SCT025 BKN035 14/10 Q1015
RJFR 191032Z 29016KT 9999 FEW015 BKN035 14/10 Q1014 RMK 1CU015 5CU035 A2996
RJFR 191000Z 32006KT 9999 FEW015 SCT025 BKN035 15/11 Q1015
RJFR 190900Z 28016KT 9999 FEW015 BKN025 15/11 Q1013
RJFR 190804Z 26019G29KT 9999 FEW015 SCT025 17/11 Q1012 RMK 1CU015 3CU025 A2990
RJFR 190800Z 26021KT 9999 FEW015 SCT025 17/12 Q1012
RJFR 190735Z 27018G30KT 9999 FEW020 SCT025 BKN030 17/12 Q1012 RMK 1CU020 3CU025 5CU030 A2989
RJFR 190727Z 27014KT 9999 FEW025 BKN035 17/13 Q1012 RMK 2CU025 5CU035 A2989
RJFR 190700Z 35007KT 9999 FEW015 SCT025 BKN040 14/11 Q1011
RJFR 190600Z VRB07KT 9999 FEW005 SCT020 BKN030 18/14 Q1010
RJFR 190500Z 02003KT 340V050 9999 FEW005 SCT010 BKN025 12/10 Q1010
RJFR 190400Z 06007KT 6000 FEW005 SCT020 BKN025 11/10 Q1011
RJFR 190342Z 06007KT 5000 -SHRA BR FEW002 SCT007 BKN025 11/09 Q1011 RMK 1ST002 3ST007 6CU025 A2987 P/FR
RJFR 190328Z 01006KT 3000 -SHRA BR FEW002 SCT007 BKN025 11/09 Q1012 RMK 1ST002 3ST007 6CU025 A2989
RJFR 190317Z 36004KT 3000 R18/1800U SHRA BR FEW002 SCT007 BKN025 11/09 Q1012 RMK 1ST002 3ST007 6CU025 A2990
RJFR 190300Z 03004KT 360V060 3500 -SHRA BR FEW002 SCT007 BKN025 11/09 Q1012
RJFR 190229Z 10006KT 040V190 4000 SHRA BR FEW002 BKN006 BKN025 11/09 Q1013 RMK 1ST002 5ST006 6CU025 A2992
RJFR 190212Z 10009KT 030V210 4000 -SHRA BR FEW002 BKN006 BKN025 11/09 Q1013 RMK 1ST002 5ST006 6CU025 A2991
RJFR 190200Z VRB11KT 4000 SHRA BR FEW002 SCT010 BKN030 11/09 Q1013
RJFR 190118Z 10016G26KT 3500 -SHRA BR FEW003 SCT015 BKN030 10/08 Q1013 RMK 1ST003 3CU015 6CU030 A2992
RJFR 190100Z 10014G25KT 010V130 2000 SHRA BR FEW001 BKN009 BKN025 10/08 Q1013
RJFR 190016Z 10014KT 060V140 6000 -SHRA FEW001 SCT004 BKN009 10/09 Q1014 RMK 1ST001 3ST004 6CU009 A2996
RJFR 190000Z 11015KT 090V160 4500 -SHRA BR FEW001 BKN007 BKN015 10/08 Q1014
RJFR 182340Z 12015KT 3000 -SHRA BR FEW001 BKN003 BKN010 10/08 Q1015 RMK 1ST001 5ST003 6CU010 A2998
RJFR 182327Z 11013KT 2000 R18/1400VP1800U SHRA BR FEW001 BKN004 BKN010 10/08 Q1015 RMK 1ST001 5ST004 6CU010 A2998
RJFR 182314Z 11011KT 2000 +SHRA BR FEW003 BKN004 BKN009 10/08 Q1016 RMK 1ST003 5ST004 6CU009 A3000
RJFR 182300Z 11012KT 070V140 2000 RA BR FEW003 BKN004 BKN007 10/08 Q1015
RJFR 182243Z 10011KT 010V140 2500 RA BR FEW003 BKN004 BKN007 10/08 Q1016 RMK 1ST003 5ST004 6ST007 A3002
RJFR 182214Z 10011KT 010V180 2500 -RA BR FEW003 BKN004 BKN007 09/08 Q1017 RMK 1ST003 5ST004 6ST007 A3004 P/FR
RJFR 182200Z VRB10KT 2500 RA BR FEW003 BKN005 BKN007 09/08 Q1017
RJFR 182145Z VRB07KT 3000 RA BR FEW003 BKN005 BKN007 09/08 Q1018 RMK 1ST003 5ST005 6ST007 A3007
RJFR 182135Z VRB07KT 4000 -RA BR FEW004 BKN005 BKN007 09/07 Q1018 RMK 1ST004 5ST005 6ST007 A3008
RJFR 182112Z VRB08KT 6000 -RA FEW004 SCT005 BKN007 09/07 Q1018 RMK 1ST004 3ST005 6ST007 A3006
RJFR 182100Z VRB08KT 5000 RA FEW004 SCT005 BKN007 09/07 Q1018
RJFR 182000Z 14004KT 6000 RA FEW006 BKN008 BKN050 07/05 Q1019
RJFR 181944Z 17003KT 6000 RA FEW007 BKN008 BKN050 07/05 Q1019 RMK 1ST007 6ST008 7NS050 A3011
RJFR 181930Z 18004KT 8000 -RA FEW007 BKN009 BKN050 07/05 Q1020 RMK 1ST007 5ST009 7NS050 A3012
RJFR 181900Z 18004KT 8000 -RA FEW007 SCT015 BKN060 07/05 Q1020
RJFR 181800Z VRB01KT 9999 -RA FEW007 SCT030 BKN070 08/05 Q1021
RJFR 181700Z 21002KT 8000 -RA FEW030 SCT045 BKN060 08/04 Q1022
RJFR 181600Z VRB01KT 9999 -RA FEW030 BKN050 08/03 Q1022
RJFR 181500Z 17003KT 130V190 9999 -RA FEW040 BKN050 OVC100 09/03 Q1023
RJFR 181400Z 12003KT 060V190 9999 FEW045 BKN100 09/03 Q1023
RJFR 181300Z 13005KT 100V170 9999 FEW045 BKN060 BKN090 09/02 Q1024
RJFR 181200Z 11003KT 040V190 9999 FEW045 BKN060 BKN120 10/04 Q1024
RJFR 181100Z 08006KT 9999 FEW050 BKN070 OVC120 10/04 Q1024
RJFR 181000Z 05004KT 9999 -RA NSC 10/M00 Q1024
RJFR 180900Z VRB01KT CAVOK 09/01 Q1024
RJFR 180800Z 13005KT 060V190 CAVOK 09/00 Q1023
RJFR 180700Z VRB04KT 9999 FEW030 BKN100 09/00 Q1023
RJFR 180600Z VRB03KT 9999 FEW030 BKN100 09/02 Q1023